sensor_id;sensor_type;location;lat;lon;timestamp;P1;durP1;ratioP1;P2;durP2;ratioP2
20695;SDS011;10507;52.754;13.040;2023-02-28T00:01:09;12.87;;;7.80;;
20695;SDS011;10507;52.754;13.040;2023-02-28T00:03:37;12.13;;;8.13;;
20695;SDS011;10507;52.754;13.040;2023-02-28T00:06:05;10.87;;;6.80;;
20695;SDS011;10507;52.754;13.040;2023-02-28T00:08:35;10.97;;;7.33;;
20695;SDS011;10507;52.754;13.040;2023-02-28T00:11:06;11.70;;;7.33;;
20695;SDS011;10507;52.754;13.040;2023-02-28T00:13:37;12.27;;;7.83;;
20695;SDS011;10507;52.754;13.040;2023-02-28T00:16:07;13.23;;;8.00;;
20695;SDS011;10507;52.754;13.040;2023-02-28T00:18:37;14.53;;;7.57;;
20695;SDS011;10507;52.754;13.040;2023-02-28T00:21:06;11.50;;;7.77;;
20695;SDS011;10507;52.754;13.040;2023-02-28T00:23:34;14.77;;;8.07;;
20695;SDS011;10507;52.754;13.040;2023-02-28T00:26:03;11.60;;;8.23;;
20695;SDS011;10507;52.754;13.040;2023-02-28T00:28:32;11.50;;;8.10;;
20695;SDS011;10507;52.754;13.040;2023-02-28T00:31:00;10.43;;;6.73;;
20695;SDS011;10507;52.754;13.040;2023-02-28T00:33:28;11.27;;;7.73;;
20695;SDS011;10507;52.754;13.040;2023-02-28T00:36:03;11.67;;;7.67;;
20695;SDS011;10507;52.754;13.040;2023-02-28T00:38:32;11.73;;;7.23;;
20695;SDS011;10507;52.754;13.040;2023-02-28T00:41:00;12.53;;;7.83;;
20695;SDS011;10507;52.754;13.040;2023-02-28T00:43:33;13.20;;;7.80;;
20695;SDS011;10507;52.754;13.040;2023-02-28T00:46:02;11.80;;;7.97;;
20695;SDS011;10507;52.754;13.040;2023-02-28T00:48:31;12.23;;;7.50;;
20695;SDS011;10507;52.754;13.040;2023-02-28T00:50:59;11.00;;;7.20;;
20695;SDS011;10507;52.754;13.040;2023-02-28T00:53:27;9.60;;;5.77;;
20695;SDS011;10507;52.754;13.040;2023-02-28T00:55:54;11.17;;;6.87;;
20695;SDS011;10507;52.754;13.040;2023-02-28T00:58:22;9.97;;;6.07;;
20695;SDS011;10507;52.754;13.040;2023-02-28T01:00:52;10.17;;;5.90;;
20695;SDS011;10507;52.754;13.040;2023-02-28T01:03:20;7.80;;;5.20;;
20695;SDS011;10507;52.754;13.040;2023-02-28T01:05:49;9.10;;;5.60;;
20695;SDS011;10507;52.754;13.040;2023-02-28T01:08:17;8.80;;;5.77;;
20695;SDS011;10507;52.754;13.040;2023-02-28T01:10:45;7.43;;;5.17;;
20695;SDS011;10507;52.754;13.040;2023-02-28T01:13:13;7.60;;;5.30;;
20695;SDS011;10507;52.754;13.040;2023-02-28T01:15:42;10.57;;;5.97;;
20695;SDS011;10507;52.754;13.040;2023-02-28T01:18:14;12.23;;;5.87;;
20695;SDS011;10507;52.754;13.040;2023-02-28T01:20:42;7.33;;;5.20;;
20695;SDS011;10507;52.754;13.040;2023-02-28T01:23:09;7.97;;;6.13;;
20695;SDS011;10507;52.754;13.040;2023-02-28T01:25:37;7.27;;;5.37;;
20695;SDS011;10507;52.754;13.040;2023-02-28T01:28:05;6.90;;;4.53;;
20695;SDS011;10507;52.754;13.040;2023-02-28T01:30:34;9.50;;;5.37;;
20695;SDS011;10507;52.754;13.040;2023-02-28T01:33:02;6.90;;;4.50;;
20695;SDS011;10507;52.754;13.040;2023-02-28T01:35:33;7.43;;;5.23;;
20695;SDS011;10507;52.754;13.040;2023-02-28T01:38:01;8.40;;;5.63;;
20695;SDS011;10507;52.754;13.040;2023-02-28T01:40:46;8.87;;;7.10;;
20695;SDS011;10507;52.754;13.040;2023-02-28T01:43:16;10.27;;;6.07;;
20695;SDS011;10507;52.754;13.040;2023-02-28T01:45:48;10.80;;;6.20;;
20695;SDS011;10507;52.754;13.040;2023-02-28T01:48:16;10.63;;;7.00;;
20695;SDS011;10507;52.754;13.040;2023-02-28T01:50:47;9.03;;;6.17;;
20695;SDS011;10507;52.754;13.040;2023-02-28T01:53:17;11.73;;;7.73;;
20695;SDS011;10507;52.754;13.040;2023-02-28T01:55:49;13.90;;;8.50;;
20695;SDS011;10507;52.754;13.040;2023-02-28T01:58:19;11.93;;;8.07;;
20695;SDS011;10507;52.754;13.040;2023-02-28T02:00:47;15.70;;;9.37;;
20695;SDS011;10507;52.754;13.040;2023-02-28T02:03:16;15.60;;;9.13;;
20695;SDS011;10507;52.754;13.040;2023-02-28T02:05:48;13.97;;;9.70;;
20695;SDS011;10507;52.754;13.040;2023-02-28T02:08:17;14.03;;;9.37;;
20695;SDS011;10507;52.754;13.040;2023-02-28T02:10:47;14.07;;;9.90;;
20695;SDS011;10507;52.754;13.040;2023-02-28T02:13:29;13.50;;;9.43;;
20695;SDS011;10507;52.754;13.040;2023-02-28T02:16:11;15.20;;;7.30;;
20695;SDS011;10507;52.754;13.040;2023-02-28T02:18:52;11.43;;;7.07;;
20695;SDS011;10507;52.754;13.040;2023-02-28T02:21:32;14.90;;;8.93;;
20695;SDS011;10507;52.754;13.040;2023-02-28T02:24:33;12.67;;;7.90;;
20695;SDS011;10507;52.754;13.040;2023-02-28T02:27:33;10.77;;;7.67;;
20695;SDS011;10507;52.754;13.040;2023-02-28T02:30:28;10.90;;;6.97;;
20695;SDS011;10507;52.754;13.040;2023-02-28T02:33:31;13.70;;;8.33;;
20695;SDS011;10507;52.754;13.040;2023-02-28T02:36:21;11.50;;;7.53;;
20695;SDS011;10507;52.754;13.040;2023-02-28T02:38:53;11.10;;;6.87;;
20695;SDS011;10507;52.754;13.040;2023-02-28T02:41:30;11.67;;;8.33;;
20695;SDS011;10507;52.754;13.040;2023-02-28T02:44:03;9.67;;;5.80;;
20695;SDS011;10507;52.754;13.040;2023-02-28T02:46:38;8.77;;;6.07;;
20695;SDS011;10507;52.754;13.040;2023-02-28T02:49:08;11.93;;;6.53;;
20695;SDS011;10507;52.754;13.040;2023-02-28T02:51:43;8.43;;;5.33;;
20695;SDS011;10507;52.754;13.040;2023-02-28T02:54:14;9.13;;;5.27;;
20695;SDS011;10507;52.754;13.040;2023-02-28T02:56:45;9.87;;;5.03;;
20695;SDS011;10507;52.754;13.040;2023-02-28T02:59:17;7.80;;;5.57;;
20695;SDS011;10507;52.754;13.040;2023-02-28T03:01:50;7.13;;;4.67;;
20695;SDS011;10507;52.754;13.040;2023-02-28T03:04:23;5.83;;;4.57;;
20695;SDS011;10507;52.754;13.040;2023-02-28T03:06:53;6.73;;;4.20;;
20695;SDS011;10507;52.754;13.040;2023-02-28T03:09:22;8.27;;;5.00;;
20695;SDS011;10507;52.754;13.040;2023-02-28T03:11:50;5.87;;;4.97;;
20695;SDS011;10507;52.754;13.040;2023-02-28T03:14:25;5.57;;;4.23;;
20695;SDS011;10507;52.754;13.040;2023-02-28T03:17:08;9.57;;;4.70;;
20695;SDS011;10507;52.754;13.040;2023-02-28T03:19:52;7.10;;;4.50;;
20695;SDS011;10507;52.754;13.040;2023-02-28T03:25:17;6.23;;;3.97;;
20695;SDS011;10507;52.754;13.040;2023-02-28T03:27:59;5.23;;;4.23;;
20695;SDS011;10507;52.754;13.040;2023-02-28T03:30:33;6.53;;;4.77;;
20695;SDS011;10507;52.754;13.040;2023-02-28T03:33:08;6.63;;;4.23;;
20695;SDS011;10507;52.754;13.040;2023-02-28T03:35:41;9.30;;;4.83;;
20695;SDS011;10507;52.754;13.040;2023-02-28T03:38:14;6.53;;;4.37;;
20695;SDS011;10507;52.754;13.040;2023-02-28T03:40:48;5.87;;;4.70;;
20695;SDS011;10507;52.754;13.040;2023-02-28T03:43:23;7.23;;;4.60;;
20695;SDS011;10507;52.754;13.040;2023-02-28T03:45:54;7.83;;;4.47;;
20695;SDS011;10507;52.754;13.040;2023-02-28T03:48:24;8.53;;;4.33;;
20695;SDS011;10507;52.754;13.040;2023-02-28T03:50:58;6.03;;;4.80;;
20695;SDS011;10507;52.754;13.040;2023-02-28T03:53:30;7.07;;;4.47;;
20695;SDS011;10507;52.754;13.040;2023-02-28T03:56:02;7.50;;;5.13;;
20695;SDS011;10507;52.754;13.040;2023-02-28T03:58:37;5.23;;;4.07;;
20695;SDS011;10507;52.754;13.040;2023-02-28T04:01:12;7.33;;;4.47;;
20695;SDS011;10507;52.754;13.040;2023-02-28T04:03:46;6.37;;;4.13;;
20695;SDS011;10507;52.754;13.040;2023-02-28T04:06:15;5.53;;;3.97;;
20695;SDS011;10507;52.754;13.040;2023-02-28T04:08:46;6.17;;;4.30;;
20695;SDS011;10507;52.754;13.040;2023-02-28T04:11:18;6.47;;;4.60;;
20695;SDS011;10507;52.754;13.040;2023-02-28T04:13:48;7.27;;;4.30;;
20695;SDS011;10507;52.754;13.040;2023-02-28T04:16:16;5.30;;;4.13;;
20695;SDS011;10507;52.754;13.040;2023-02-28T04:19:00;5.23;;;3.90;;
20695;SDS011;10507;52.754;13.040;2023-02-28T04:21:29;6.23;;;4.37;;
20695;SDS011;10507;52.754;13.040;2023-02-28T04:23:59;6.00;;;4.40;;
20695;SDS011;10507;52.754;13.040;2023-02-28T04:26:28;6.23;;;4.07;;
20695;SDS011;10507;52.754;13.040;2023-02-28T04:28:57;8.00;;;4.10;;
20695;SDS011;10507;52.754;13.040;2023-02-28T04:31:25;6.00;;;4.70;;
20695;SDS011;10507;52.754;13.040;2023-02-28T04:33:54;7.40;;;4.00;;
20695;SDS011;10507;52.754;13.040;2023-02-28T04:36:22;6.93;;;4.33;;
20695;SDS011;10507;52.754;13.040;2023-02-28T04:38:50;4.93;;;4.03;;
20695;SDS011;10507;52.754;13.040;2023-02-28T04:41:19;6.50;;;3.47;;
20695;SDS011;10507;52.754;13.040;2023-02-28T04:43:48;5.83;;;3.83;;
20695;SDS011;10507;52.754;13.040;2023-02-28T04:46:17;5.57;;;4.00;;
20695;SDS011;10507;52.754;13.040;2023-02-28T04:48:46;8.70;;;4.53;;
20695;SDS011;10507;52.754;13.040;2023-02-28T04:51:15;6.63;;;4.27;;
20695;SDS011;10507;52.754;13.040;2023-02-28T04:53:44;7.30;;;4.73;;
20695;SDS011;10507;52.754;13.040;2023-02-28T04:56:12;6.07;;;4.27;;
20695;SDS011;10507;52.754;13.040;2023-02-28T04:58:43;5.53;;;4.10;;
20695;SDS011;10507;52.754;13.040;2023-02-28T05:01:19;7.23;;;4.17;;
20695;SDS011;10507;52.754;13.040;2023-02-28T05:03:49;5.60;;;3.60;;
20695;SDS011;10507;52.754;13.040;2023-02-28T05:06:20;5.10;;;3.77;;
20695;SDS011;10507;52.754;13.040;2023-02-28T05:08:49;7.17;;;4.60;;
20695;SDS011;10507;52.754;13.040;2023-02-28T05:11:18;5.93;;;3.80;;
20695;SDS011;10507;52.754;13.040;2023-02-28T05:13:49;5.67;;;4.50;;
20695;SDS011;10507;52.754;13.040;2023-02-28T05:16:18;9.03;;;4.40;;
20695;SDS011;10507;52.754;13.040;2023-02-28T05:18:47;6.47;;;4.67;;
20695;SDS011;10507;52.754;13.040;2023-02-28T05:21:21;6.53;;;4.43;;
20695;SDS011;10507;52.754;13.040;2023-02-28T05:23:52;4.97;;;4.37;;
20695;SDS011;10507;52.754;13.040;2023-02-28T05:26:20;6.83;;;4.50;;
20695;SDS011;10507;52.754;13.040;2023-02-28T05:28:49;5.30;;;4.17;;
20695;SDS011;10507;52.754;13.040;2023-02-28T05:31:17;6.80;;;4.20;;
20695;SDS011;10507;52.754;13.040;2023-02-28T05:33:45;7.80;;;4.30;;
20695;SDS011;10507;52.754;13.040;2023-02-28T05:36:13;9.53;;;4.70;;
20695;SDS011;10507;52.754;13.040;2023-02-28T05:38:41;8.57;;;4.03;;
20695;SDS011;10507;52.754;13.040;2023-02-28T05:41:10;8.10;;;4.50;;
20695;SDS011;10507;52.754;13.040;2023-02-28T05:43:38;9.70;;;4.40;;
20695;SDS011;10507;52.754;13.040;2023-02-28T05:46:08;7.27;;;4.77;;
20695;SDS011;10507;52.754;13.040;2023-02-28T05:48:39;9.83;;;4.67;;
20695;SDS011;10507;52.754;13.040;2023-02-28T05:51:08;7.83;;;4.90;;
20695;SDS011;10507;52.754;13.040;2023-02-28T05:53:37;5.63;;;4.50;;
20695;SDS011;10507;52.754;13.040;2023-02-28T05:56:05;7.70;;;4.53;;
20695;SDS011;10507;52.754;13.040;2023-02-28T05:58:33;6.43;;;4.67;;
20695;SDS011;10507;52.754;13.040;2023-02-28T06:01:18;8.10;;;4.77;;
20695;SDS011;10507;52.754;13.040;2023-02-28T06:03:49;7.93;;;4.67;;
20695;SDS011;10507;52.754;13.040;2023-02-28T06:06:17;8.97;;;4.60;;
20695;SDS011;10507;52.754;13.040;2023-02-28T06:08:45;10.07;;;4.77;;
20695;SDS011;10507;52.754;13.040;2023-02-28T06:11:13;6.77;;;4.47;;
20695;SDS011;10507;52.754;13.040;2023-02-28T06:13:41;8.50;;;4.87;;
20695;SDS011;10507;52.754;13.040;2023-02-28T06:16:09;7.20;;;4.70;;
20695;SDS011;10507;52.754;13.040;2023-02-28T06:18:39;7.30;;;4.87;;
20695;SDS011;10507;52.754;13.040;2023-02-28T06:21:07;6.93;;;4.47;;
20695;SDS011;10507;52.754;13.040;2023-02-28T06:23:35;7.50;;;4.70;;
20695;SDS011;10507;52.754;13.040;2023-02-28T06:26:03;10.23;;;4.60;;
20695;SDS011;10507;52.754;13.040;2023-02-28T06:28:31;7.10;;;4.33;;
20695;SDS011;10507;52.754;13.040;2023-02-28T06:30:59;6.87;;;3.97;;
20695;SDS011;10507;52.754;13.040;2023-02-28T06:33:32;8.73;;;4.00;;
20695;SDS011;10507;52.754;13.040;2023-02-28T06:36:02;7.60;;;3.90;;
20695;SDS011;10507;52.754;13.040;2023-02-28T06:38:31;6.63;;;3.53;;
20695;SDS011;10507;52.754;13.040;2023-02-28T06:40:59;6.83;;;3.80;;
20695;SDS011;10507;52.754;13.040;2023-02-28T06:43:28;6.47;;;3.63;;
20695;SDS011;10507;52.754;13.040;2023-02-28T06:45:58;7.87;;;3.87;;
20695;SDS011;10507;52.754;13.040;2023-02-28T06:48:28;5.20;;;3.07;;
20695;SDS011;10507;52.754;13.040;2023-02-28T06:51:02;6.70;;;3.93;;
20695;SDS011;10507;52.754;13.040;2023-02-28T06:53:30;6.73;;;3.57;;
20695;SDS011;10507;52.754;13.040;2023-02-28T06:55:58;6.97;;;3.73;;
20695;SDS011;10507;52.754;13.040;2023-02-28T06:58:26;4.83;;;3.33;;
20695;SDS011;10507;52.754;13.040;2023-02-28T07:00:54;3.90;;;2.87;;
20695;SDS011;10507;52.754;13.040;2023-02-28T07:03:22;5.80;;;3.07;;
20695;SDS011;10507;52.754;13.040;2023-02-28T07:05:50;5.50;;;3.30;;
20695;SDS011;10507;52.754;13.040;2023-02-28T07:08:19;5.33;;;3.30;;
20695;SDS011;10507;52.754;13.040;2023-02-28T07:10:47;5.70;;;3.40;;
20695;SDS011;10507;52.754;13.040;2023-02-28T07:13:19;4.73;;;2.57;;
20695;SDS011;10507;52.754;13.040;2023-02-28T07:15:52;5.47;;;3.17;;
20695;SDS011;10507;52.754;13.040;2023-02-28T07:18:21;5.90;;;3.23;;
20695;SDS011;10507;52.754;13.040;2023-02-28T07:20:49;6.23;;;3.27;;
20695;SDS011;10507;52.754;13.040;2023-02-28T07:23:17;4.67;;;3.07;;
20695;SDS011;10507;52.754;13.040;2023-02-28T07:25:46;5.27;;;3.33;;
20695;SDS011;10507;52.754;13.040;2023-02-28T07:28:14;6.80;;;3.60;;
20695;SDS011;10507;52.754;13.040;2023-02-28T07:30:42;6.63;;;3.50;;
20695;SDS011;10507;52.754;13.040;2023-02-28T07:33:10;6.13;;;3.37;;
20695;SDS011;10507;52.754;13.040;2023-02-28T07:35:38;7.87;;;4.33;;
20695;SDS011;10507;52.754;13.040;2023-02-28T07:38:06;7.57;;;3.87;;
20695;SDS011;10507;52.754;13.040;2023-02-28T07:40:34;5.67;;;3.10;;
20695;SDS011;10507;52.754;13.040;2023-02-28T07:43:04;5.67;;;3.60;;
20695;SDS011;10507;52.754;13.040;2023-02-28T07:45:32;9.23;;;3.97;;
20695;SDS011;10507;52.754;13.040;2023-02-28T07:48:01;6.07;;;3.70;;
20695;SDS011;10507;52.754;13.040;2023-02-28T07:50:29;7.87;;;3.77;;
20695;SDS011;10507;52.754;13.040;2023-02-28T07:52:57;5.63;;;3.77;;
20695;SDS011;10507;52.754;13.040;2023-02-28T07:55:25;6.33;;;4.17;;
20695;SDS011;10507;52.754;13.040;2023-02-28T07:57:53;6.90;;;3.60;;
20695;SDS011;10507;52.754;13.040;2023-02-28T08:00:23;5.73;;;3.43;;
20695;SDS011;10507;52.754;13.040;2023-02-28T08:02:51;9.27;;;3.40;;
20695;SDS011;10507;52.754;13.040;2023-02-28T08:05:19;7.50;;;3.80;;
20695;SDS011;10507;52.754;13.040;2023-02-28T08:07:48;6.07;;;3.80;;
20695;SDS011;10507;52.754;13.040;2023-02-28T08:10:16;7.10;;;3.90;;
20695;SDS011;10507;52.754;13.040;2023-02-28T08:12:44;9.00;;;4.60;;
20695;SDS011;10507;52.754;13.040;2023-02-28T08:15:12;6.93;;;4.43;;
20695;SDS011;10507;52.754;13.040;2023-02-28T08:17:41;5.73;;;3.60;;
20695;SDS011;10507;52.754;13.040;2023-02-28T08:20:09;7.23;;;3.90;;
20695;SDS011;10507;52.754;13.040;2023-02-28T08:22:38;7.83;;;4.27;;
20695;SDS011;10507;52.754;13.040;2023-02-28T08:25:06;7.03;;;4.50;;
20695;SDS011;10507;52.754;13.040;2023-02-28T08:27:34;7.47;;;4.27;;
20695;SDS011;10507;52.754;13.040;2023-02-28T08:30:03;7.37;;;4.30;;
20695;SDS011;10507;52.754;13.040;2023-02-28T08:32:31;7.60;;;4.13;;
20695;SDS011;10507;52.754;13.040;2023-02-28T08:35:01;6.50;;;4.53;;
20695;SDS011;10507;52.754;13.040;2023-02-28T08:37:29;8.87;;;4.97;;
20695;SDS011;10507;52.754;13.040;2023-02-28T08:39:57;6.97;;;4.10;;
20695;SDS011;10507;52.754;13.040;2023-02-28T08:42:25;7.37;;;4.47;;
20695;SDS011;10507;52.754;13.040;2023-02-28T08:44:53;9.87;;;4.83;;
20695;SDS011;10507;52.754;13.040;2023-02-28T08:47:21;7.17;;;4.50;;
20695;SDS011;10507;52.754;13.040;2023-02-28T08:49:49;6.87;;;4.30;;
20695;SDS011;10507;52.754;13.040;2023-02-28T08:52:18;9.43;;;4.67;;
20695;SDS011;10507;52.754;13.040;2023-02-28T08:54:45;7.90;;;4.57;;
20695;SDS011;10507;52.754;13.040;2023-02-28T08:57:13;8.93;;;5.07;;
20695;SDS011;10507;52.754;13.040;2023-02-28T08:59:41;8.00;;;4.60;;
20695;SDS011;10507;52.754;13.040;2023-02-28T09:02:09;7.77;;;4.80;;
20695;SDS011;10507;52.754;13.040;2023-02-28T09:04:40;7.80;;;4.63;;
20695;SDS011;10507;52.754;13.040;2023-02-28T09:07:08;7.63;;;4.73;;
20695;SDS011;10507;52.754;13.040;2023-02-28T09:09:37;8.37;;;4.77;;
20695;SDS011;10507;52.754;13.040;2023-02-28T09:12:20;7.37;;;5.10;;
20695;SDS011;10507;52.754;13.040;2023-02-28T09:14:48;6.00;;;4.33;;
20695;SDS011;10507;52.754;13.040;2023-02-28T09:17:16;6.90;;;4.17;;
20695;SDS011;10507;52.754;13.040;2023-02-28T09:19:44;5.47;;;3.70;;
20695;SDS011;10507;52.754;13.040;2023-02-28T09:22:12;6.03;;;3.97;;
20695;SDS011;10507;52.754;13.040;2023-02-28T09:24:41;8.80;;;4.20;;
20695;SDS011;10507;52.754;13.040;2023-02-28T09:27:11;5.90;;;3.60;;
20695;SDS011;10507;52.754;13.040;2023-02-28T09:29:38;9.80;;;4.17;;
20695;SDS011;10507;52.754;13.040;2023-02-28T09:32:06;6.43;;;3.83;;
20695;SDS011;10507;52.754;13.040;2023-02-28T09:34:34;6.27;;;3.97;;
20695;SDS011;10507;52.754;13.040;2023-02-28T09:37:03;5.90;;;3.80;;
20695;SDS011;10507;52.754;13.040;2023-02-28T09:39:31;4.90;;;3.17;;
20695;SDS011;10507;52.754;13.040;2023-02-28T09:42:00;6.07;;;3.50;;
20695;SDS011;10507;52.754;13.040;2023-02-28T09:44:31;5.60;;;3.40;;
20695;SDS011;10507;52.754;13.040;2023-02-28T09:47:05;5.57;;;3.33;;
20695;SDS011;10507;52.754;13.040;2023-02-28T09:49:39;7.27;;;3.40;;
20695;SDS011;10507;52.754;13.040;2023-02-28T09:52:10;8.00;;;3.63;;
20695;SDS011;10507;52.754;13.040;2023-02-28T09:54:41;9.10;;;3.10;;
20695;SDS011;10507;52.754;13.040;2023-02-28T09:57:14;8.87;;;3.20;;
20695;SDS011;10507;52.754;13.040;2023-02-28T09:59:56;3.87;;;2.67;;
20695;SDS011;10507;52.754;13.040;2023-02-28T10:02:46;5.50;;;2.70;;
20695;SDS011;10507;52.754;13.040;2023-02-28T10:05:24;3.53;;;2.50;;
20695;SDS011;10507;52.754;13.040;2023-02-28T10:08:02;5.50;;;2.47;;
20695;SDS011;10507;52.754;13.040;2023-02-28T10:10:36;3.47;;;2.33;;
20695;SDS011;10507;52.754;13.040;2023-02-28T10:13:13;4.43;;;2.87;;
20695;SDS011;10507;52.754;13.040;2023-02-28T10:15:44;4.60;;;2.30;;
20695;SDS011;10507;52.754;13.040;2023-02-28T10:18:15;4.07;;;2.00;;
20695;SDS011;10507;52.754;13.040;2023-02-28T10:20:48;3.10;;;2.10;;
20695;SDS011;10507;52.754;13.040;2023-02-28T10:23:20;3.30;;;2.30;;
20695;SDS011;10507;52.754;13.040;2023-02-28T10:25:53;3.47;;;1.87;;
20695;SDS011;10507;52.754;13.040;2023-02-28T10:28:25;3.00;;;1.93;;
20695;SDS011;10507;52.754;13.040;2023-02-28T10:31:00;4.93;;;1.97;;
20695;SDS011;10507;52.754;13.040;2023-02-28T10:33:29;3.23;;;2.10;;
20695;SDS011;10507;52.754;13.040;2023-02-28T10:35:58;4.47;;;2.37;;
20695;SDS011;10507;52.754;13.040;2023-02-28T10:38:27;4.27;;;2.30;;
20695;SDS011;10507;52.754;13.040;2023-02-28T10:41:03;3.97;;;1.87;;
20695;SDS011;10507;52.754;13.040;2023-02-28T10:43:34;3.70;;;2.40;;
20695;SDS011;10507;52.754;13.040;2023-02-28T10:46:03;4.57;;;2.30;;
20695;SDS011;10507;52.754;13.040;2023-02-28T10:48:39;4.43;;;2.73;;
20695;SDS011;10507;52.754;13.040;2023-02-28T10:51:09;4.37;;;2.57;;
20695;SDS011;10507;52.754;13.040;2023-02-28T10:53:39;4.90;;;2.40;;
20695;SDS011;10507;52.754;13.040;2023-02-28T10:56:26;3.87;;;2.20;;
20695;SDS011;10507;52.754;13.040;2023-02-28T10:58:58;4.57;;;2.50;;
20695;SDS011;10507;52.754;13.040;2023-02-28T11:01:34;6.30;;;2.57;;
20695;SDS011;10507;52.754;13.040;2023-02-28T11:04:16;7.60;;;2.30;;
20695;SDS011;10507;52.754;13.040;2023-02-28T11:06:45;3.90;;;2.30;;
20695;SDS011;10507;52.754;13.040;2023-02-28T11:09:18;4.83;;;2.60;;
20695;SDS011;10507;52.754;13.040;2023-02-28T11:11:50;5.87;;;2.50;;
20695;SDS011;10507;52.754;13.040;2023-02-28T11:14:21;3.57;;;2.13;;
20695;SDS011;10507;52.754;13.040;2023-02-28T11:16:51;4.50;;;2.30;;
20695;SDS011;10507;52.754;13.040;2023-02-28T11:19:20;4.23;;;2.43;;
20695;SDS011;10507;52.754;13.040;2023-02-28T11:21:52;4.33;;;2.30;;
20695;SDS011;10507;52.754;13.040;2023-02-28T11:24:23;3.33;;;2.20;;
20695;SDS011;10507;52.754;13.040;2023-02-28T11:26:54;3.93;;;2.30;;
20695;SDS011;10507;52.754;13.040;2023-02-28T11:29:25;3.67;;;2.40;;
20695;SDS011;10507;52.754;13.040;2023-02-28T11:32:02;4.63;;;2.23;;
20695;SDS011;10507;52.754;13.040;2023-02-28T11:34:35;5.17;;;2.50;;
20695;SDS011;10507;52.754;13.040;2023-02-28T11:37:05;7.60;;;2.87;;
20695;SDS011;10507;52.754;13.040;2023-02-28T11:39:38;3.37;;;2.00;;
20695;SDS011;10507;52.754;13.040;2023-02-28T11:45:07;4.73;;;2.07;;
20695;SDS011;10507;52.754;13.040;2023-02-28T11:47:47;2.97;;;1.93;;
20695;SDS011;10507;52.754;13.040;2023-02-28T11:50:27;3.77;;;2.23;;
20695;SDS011;10507;52.754;13.040;2023-02-28T11:53:14;3.40;;;1.87;;
20695;SDS011;10507;52.754;13.040;2023-02-28T11:55:51;2.53;;;1.77;;
20695;SDS011;10507;52.754;13.040;2023-02-28T11:58:29;2.27;;;1.70;;
20695;SDS011;10507;52.754;13.040;2023-02-28T12:01:18;4.67;;;2.00;;
20695;SDS011;10507;52.754;13.040;2023-02-28T12:03:58;2.27;;;2.00;;
20695;SDS011;10507;52.754;13.040;2023-02-28T12:06:40;3.77;;;1.90;;
20695;SDS011;10507;52.754;13.040;2023-02-28T12:09:17;4.10;;;2.10;;
20695;SDS011;10507;52.754;13.040;2023-02-28T12:11:59;5.20;;;2.00;;
20695;SDS011;10507;52.754;13.040;2023-02-28T12:14:45;5.03;;;2.10;;
20695;SDS011;10507;52.754;13.040;2023-02-28T12:17:24;5.40;;;2.30;;
20695;SDS011;10507;52.754;13.040;2023-02-28T12:20:02;5.23;;;1.90;;
20695;SDS011;10507;52.754;13.040;2023-02-28T12:22:42;4.53;;;1.80;;
20695;SDS011;10507;52.754;13.040;2023-02-28T12:28:17;3.30;;;2.23;;
20695;SDS011;10507;52.754;13.040;2023-02-28T12:30:52;3.27;;;2.10;;
20695;SDS011;10507;52.754;13.040;2023-02-28T12:33:26;4.67;;;2.13;;
20695;SDS011;10507;52.754;13.040;2023-02-28T12:36:01;3.33;;;2.27;;
20695;SDS011;10507;52.754;13.040;2023-02-28T12:38:34;3.23;;;2.10;;
20695;SDS011;10507;52.754;13.040;2023-02-28T12:41:06;6.97;;;2.10;;
20695;SDS011;10507;52.754;13.040;2023-02-28T12:43:41;4.70;;;2.60;;
20695;SDS011;10507;52.754;13.040;2023-02-28T12:46:12;3.43;;;2.50;;
20695;SDS011;10507;52.754;13.040;2023-02-28T12:48:47;3.67;;;2.47;;
20695;SDS011;10507;52.754;13.040;2023-02-28T12:51:19;3.80;;;2.50;;
20695;SDS011;10507;52.754;13.040;2023-02-28T12:53:50;4.73;;;2.17;;
20695;SDS011;10507;52.754;13.040;2023-02-28T12:56:27;3.60;;;2.20;;
20695;SDS011;10507;52.754;13.040;2023-02-28T12:59:03;3.17;;;2.03;;
20695;SDS011;10507;52.754;13.040;2023-02-28T13:01:42;3.47;;;1.93;;
20695;SDS011;10507;52.754;13.040;2023-02-28T13:07:55;3.97;;;2.30;;
20695;SDS011;10507;52.754;13.040;2023-02-28T13:10:40;3.80;;;2.20;;
20695;SDS011;10507;52.754;13.040;2023-02-28T13:13:14;3.77;;;2.10;;
20695;SDS011;10507;52.754;13.040;2023-02-28T13:16:00;3.67;;;2.03;;
20695;SDS011;10507;52.754;13.040;2023-02-28T13:18:31;3.27;;;1.93;;
20695;SDS011;10507;52.754;13.040;2023-02-28T13:21:04;2.73;;;1.93;;
20695;SDS011;10507;52.754;13.040;2023-02-28T13:29:36;3.23;;;2.00;;
20695;SDS011;10507;52.754;13.040;2023-02-28T13:32:28;4.17;;;2.33;;
20695;SDS011;10507;52.754;13.040;2023-02-28T13:35:12;4.90;;;2.10;;
20695;SDS011;10507;52.754;13.040;2023-02-28T13:37:44;4.37;;;2.37;;
20695;SDS011;10507;52.754;13.040;2023-02-28T13:40:29;3.30;;;1.70;;
20695;SDS011;10507;52.754;13.040;2023-02-28T13:43:06;3.23;;;1.90;;
20695;SDS011;10507;52.754;13.040;2023-02-28T13:45:35;3.37;;;2.30;;
20695;SDS011;10507;52.754;13.040;2023-02-28T13:48:12;4.23;;;2.43;;
20695;SDS011;10507;52.754;13.040;2023-02-28T13:50:45;4.20;;;2.03;;
20695;SDS011;10507;52.754;13.040;2023-02-28T13:56:24;4.97;;;1.87;;
20695;SDS011;10507;52.754;13.040;2023-02-28T13:59:04;5.00;;;1.97;;
20695;SDS011;10507;52.754;13.040;2023-02-28T14:01:48;2.90;;;1.80;;
20695;SDS011;10507;52.754;13.040;2023-02-28T14:04:31;4.43;;;2.00;;
20695;SDS011;10507;52.754;13.040;2023-02-28T14:07:26;2.93;;;1.90;;
20695;SDS011;10507;52.754;13.040;2023-02-28T14:10:03;2.50;;;1.90;;
20695;SDS011;10507;52.754;13.040;2023-02-28T14:12:54;4.07;;;2.17;;
20695;SDS011;10507;52.754;13.040;2023-02-28T14:18:14;2.87;;;2.30;;
20695;SDS011;10507;52.754;13.040;2023-02-28T14:20:47;2.50;;;1.70;;
20695;SDS011;10507;52.754;13.040;2023-02-28T14:23:19;3.10;;;2.00;;
20695;SDS011;10507;52.754;13.040;2023-02-28T14:26:02;3.90;;;2.33;;
20695;SDS011;10507;52.754;13.040;2023-02-28T14:28:48;3.33;;;1.90;;
20695;SDS011;10507;52.754;13.040;2023-02-28T14:31:29;3.20;;;1.77;;
20695;SDS011;10507;52.754;13.040;2023-02-28T14:34:12;4.20;;;2.87;;
20695;SDS011;10507;52.754;13.040;2023-02-28T14:36:52;2.97;;;2.07;;
20695;SDS011;10507;52.754;13.040;2023-02-28T14:39:21;5.80;;;2.13;;
20695;SDS011;10507;52.754;13.040;2023-02-28T14:41:53;5.80;;;2.07;;
20695;SDS011;10507;52.754;13.040;2023-02-28T14:44:21;4.17;;;2.23;;
20695;SDS011;10507;52.754;13.040;2023-02-28T14:46:52;4.60;;;2.27;;
20695;SDS011;10507;52.754;13.040;2023-02-28T14:49:23;3.93;;;2.20;;
20695;SDS011;10507;52.754;13.040;2023-02-28T14:52:01;3.57;;;2.07;;
20695;SDS011;10507;52.754;13.040;2023-02-28T14:54:35;2.97;;;1.83;;
20695;SDS011;10507;52.754;13.040;2023-02-28T14:57:05;3.37;;;2.17;;
20695;SDS011;10507;52.754;13.040;2023-02-28T14:59:34;2.57;;;2.13;;
20695;SDS011;10507;52.754;13.040;2023-02-28T15:02:16;5.13;;;2.10;;
20695;SDS011;10507;52.754;13.040;2023-02-28T15:04:51;3.50;;;2.30;;
20695;SDS011;10507;52.754;13.040;2023-02-28T15:07:20;3.50;;;2.13;;
20695;SDS011;10507;52.754;13.040;2023-02-28T15:10:11;3.77;;;1.80;;
20695;SDS011;10507;52.754;13.040;2023-02-28T15:12:47;3.33;;;1.97;;
20695;SDS011;10507;52.754;13.040;2023-02-28T15:15:20;3.57;;;2.10;;
20695;SDS011;10507;52.754;13.040;2023-02-28T15:18:05;4.23;;;2.33;;
20695;SDS011;10507;52.754;13.040;2023-02-28T15:20:43;4.40;;;2.03;;
20695;SDS011;10507;52.754;13.040;2023-02-28T15:23:12;4.83;;;1.90;;
20695;SDS011;10507;52.754;13.040;2023-02-28T15:25:41;4.73;;;2.20;;
20695;SDS011;10507;52.754;13.040;2023-02-28T15:28:13;3.80;;;2.40;;